Portada
METAR-TAF:

METAR-TAF

Aeropuertos :

Såtenäs, Suecia

latitud: 58-26N, longitud: 012-42E, altitud: 54 m

Observación

El informe se hizo hace 40 minutos, a las 22:50 UTC
Viento 8 kt del suroeste
Temperatura 3°C
Humedad 100%
Presión 1012 hPa
Visibilidad 10 km o más

METAR: ESIB 312250Z AUTO 22008KT 9999 NCD 03/03 Q1012

Hora: 01:30 (23:30 UTC)

Pronóstico

El informe se hizo hace 12 horas y 0 minutos, a las 11:30 UTC
Pronóstico válido del 31 a las 12 UTC al 31 a las 15 UTC
Viento 15 kt del oeste-suroeste con ráfagas de 27 kt
Visibilidad 10 km o más
Cielo nuboso a una altura de 3000 ft

TAF: ESIB 311130Z 3112/3115 24015G27KT 9999 BKN030 RMK MIL

Observaciones y pronósticos meteorológicos de más de 4000 aeropuertos (mensajes METAR y TAF).

Los puntos amarillos y rojos representan las estaciones disponibles.

Ponga el ratón en el punto deseado para ver el nombre de la estación.

Haga clic para ver las observaciones y los pronósticos meteorológicos.

Para cambiar el mapa : haga clic en los botones verdes con una cruz de color negro para hacer un zoom, en el botón verde con un guión para alejar o en las flechas verdes para mapas adyacentes.


METAR-TAF: